Aviation Digital Data Service (ADDS)

Output produced by METARs form (1809 UTC 14 August 2018)
found at http://www.aviationweather.gov/adds/metars/
 
FNBG 141500Z 33008KT 9999 SCT015 25/18 Q1013
TAF FNBG 141120Z 1412/1424 27010KT 9000 SCT025 OVC050 
     TEMPO 1413/1417 33010KT 9999 OVC030 
     BECMG 1418/1420 VRB03KT SCT020
       
FNCA 141800Z 17005KT 9999 FEW016 BKN020 23/21 Q1015
TAF FNCA 141100Z 1412/1424 19007KT 9999 SCT010 BKN023 
     BECMG 1414/1417 9000 OVC020 
     TEMPO 1418/1424 VRB03KT CAVOK
       
TAF FNDU 141100Z 1412/1424 08006KT CAVOK 
     TEMPO 1416/1424 VRB03KT
       
FNHU 141600Z 12010KT 8000 NSC 27/01 Q1022
TAF FNHU 141100Z 1412/1424 07008KT CAVOK 
     BECMG 1418/1420 VRB02KT
       
FNKU 141300Z 16010KT CAVOK 27/17 Q1022
TAF COR FNKU 141230Z 1412/1424 08005KT CAVOK 
     BECMG 1418/1420 VRB02KT
       
FNLU 141700Z 26005KT 9000 OVC020 22/20 Q1014
TAF FNLU 141700Z 1418/1524 19010KT 9000 OVC020 
     BECMG 1500/1502 18005KT 7000 FEW018 BKN020 
     BECMG 1506/1508 5000 BR FEW018 OVC022 
     BECMG 1512/1514 26010KT 9999 BKN023 
     TEMPO 1514/1518 CAVOK
       
FNUE 141600Z 09006KT CAVOK 26/16 Q1020
TAF FNUE 141100Z 1412/1424 08010KT CAVOK 
     BECMG 1418/1420 VRB02KT 8000 NSC
       
FNMA 141400Z 00000KT 6000 BKN022 27/17 Q1015
TAF FNMA 141100Z 1412/1424 09005KT 9999 BKN050 
     TEMPO 1416/1421 VRB03KT CAVOK 
     BECMG 1422/1424 BKN025
       
TAF FNME 141120Z 1412/1424 09005KT 8000 FEW025 
     TEMPO 1413/1417 15005KT CAVOK 
     BECMG 1418/1420 VRB03KT 9000 NSC
       
FNMO 141500Z 00000KT 9999 OVC013 20/16 Q1013
TAF FNMO 141100Z 1412/1424 30012KT 5000 BR NSC 
     TEMPO 1415/1424 VRB03KT CAVOK
       
FNGI 141600Z 10004KT CAVOK 32/01 Q1017
TAF FNGI 141100Z 1412/1424 05007KT CAVOK 
     TEMPO 1414/1418 17005KT 
     TEMPO 1418/1424 VRB03KT
       
FNSA 141600Z 00000KT CAVOK 31/11 Q1017
TAF FNSA 141100Z 1412/1424 07005KT CAVOK 
     BECMG 1418/1420 VRB02KT 7000 NSC
       
FNSO 141500Z 18005KT 9999 FEW011 SCT060 ///// Q1014
TAF FNSO 141100Z 1412/1424 19007KT 9000 FEW010 BKN050 
     BECMG 1415/1419 9999 BKN023 
     TEMPO 1420/1424 NSC
       
FNSU 141600Z 23006KT 9999 BKN013 22/// Q1016
FNUG 141400Z 24008KT 9999 SCT017 24/19 Q1014